Time;durP1;ratioP1;P1;durP2;ratioP2;P2;SDS_P1;SDS_P2;PMS_P1;PMS_P2;Temp;Humidity;BMP_temperature;BMP_pressure;BME280_temperature;BME280_humidity;BME280_pressure;Samples;Min_cycle;Max_cycle;Signal;HPM_P1;HPM_P2
2023/01/09 00:00:12;;;;;;;1999.90;999.90;;;7.80;99.90;;;;;;4996722;28;20046;-76
2023/01/09 00:02:39;;;;;;;1999.90;999.90;;;7.80;99.90;;;;;;4996837;28;20046;-76
2023/01/09 00:05:06;;;;;;;1999.90;999.90;;;7.80;99.90;;;;;;5015958;28;20039;-75
2023/01/09 00:07:32;;;;;;;1999.90;999.90;;;7.80;99.90;;;;;;5014342;28;20042;-76
2023/01/09 00:09:57;;;;;;;1999.90;999.90;;;7.80;99.90;;;;;;5016245;28;20037;-75
2023/01/09 00:12:23;;;;;;;1999.90;999.90;;;7.80;99.90;;;;;;5016252;28;20105;-75
2023/01/09 00:14:48;;;;;;;1999.90;999.90;;;7.80;99.90;;;;;;5013892;28;20038;-75
2023/01/09 00:17:14;;;;;;;1999.90;999.90;;;7.80;99.90;;;;;;5015315;28;20126;-74
2023/01/09 00:19:39;;;;;;;1999.90;999.90;;;7.80;99.90;;;;;;5016133;28;20041;-76
2023/01/09 00:22:08;;;;;;;1999.90;999.90;;;7.80;99.90;;;;;;5013973;28;20043;-76
2023/01/09 00:24:34;;;;;;;1999.90;999.90;;;7.80;99.90;;;;;;5014512;28;20516;-77
2023/01/09 00:27:00;;;;;;;1999.90;999.90;;;7.80;99.90;;;;;;5015595;28;20050;-75
2023/01/09 00:29:25;;;;;;;1999.90;999.90;;;7.70;99.90;;;;;;5015718;28;20033;-75
2023/01/09 00:31:51;;;;;;;1999.90;999.90;;;7.70;99.90;;;;;;5015691;28;20480;-75
2023/01/09 00:34:16;;;;;;;1999.90;999.90;;;7.70;99.90;;;;;;5013732;28;20045;-76
2023/01/09 00:36:42;;;;;;;1999.90;999.90;;;7.70;99.90;;;;;;5015318;28;20527;-76
2023/01/09 00:39:07;;;;;;;1999.90;999.90;;;7.70;99.90;;;;;;5015840;28;20026;-76
2023/01/09 00:41:45;;;;;;;1999.90;999.90;;;7.70;99.90;;;;;;5015402;28;20038;-76
2023/01/09 00:44:22;;;;;;;1999.90;999.90;;;7.70;99.90;;;;;;5015397;28;20302;-75
2023/01/09 00:46:53;;;;;;;1999.90;999.90;;;7.60;99.90;;;;;;5015118;28;20523;-74
2023/01/09 00:49:19;;;;;;;1999.90;999.90;;;7.70;99.90;;;;;;5015774;28;20034;-75
2023/01/09 00:51:45;;;;;;;1999.90;999.90;;;7.60;99.90;;;;;;5015519;28;20034;-74
2023/01/09 00:54:14;;;;;;;1999.90;999.90;;;7.60;99.90;;;;;;5013611;28;20038;-74
2023/01/09 00:56:40;;;;;;;1999.90;999.90;;;7.60;99.90;;;;;;5013509;28;20039;-75
2023/01/09 00:59:06;;;;;;;1999.90;999.90;;;7.60;99.90;;;;;;5015259;28;20034;-76
2023/01/09 01:01:32;;;;;;;1999.90;999.90;;;7.60;99.90;;;;;;5015290;28;20038;-76
2023/01/09 01:03:57;;;;;;;1999.90;999.90;;;7.50;99.90;;;;;;5014815;28;20488;-76
2023/01/09 01:09:07;;;;;;;1999.90;999.90;;;7.50;99.90;;;;;;5015774;28;20038;-76
2023/01/09 01:11:33;;;;;;;1999.90;999.90;;;7.50;99.90;;;;;;5015210;28;20037;-76
2023/01/09 01:13:59;;;;;;;1999.90;999.90;;;7.40;99.90;;;;;;5014768;28;20041;-76
2023/01/09 01:16:25;;;;;;;1999.90;999.90;;;7.40;99.90;;;;;;5014588;28;20034;-76
2023/01/09 01:18:50;;;;;;;1999.90;999.90;;;7.40;99.90;;;;;;4993058;28;20063;-76
2023/01/09 01:21:16;;;;;;;1999.90;999.90;;;7.50;99.90;;;;;;4995349;28;20046;-76
2023/01/09 01:23:42;;;;;;;1999.90;999.90;;;7.50;99.90;;;;;;4994981;28;20521;-76
2023/01/09 01:26:13;;;;;;;1999.90;999.90;;;7.50;99.90;;;;;;4993837;28;20030;-76
2023/01/09 01:28:40;;;;;;;1999.90;999.90;;;7.50;99.90;;;;;;4995048;28;20055;-76
2023/01/09 01:31:06;;;;;;;1999.90;999.90;;;7.50;99.90;;;;;;4995379;28;20094;-76
2023/01/09 01:33:32;;;;;;;1999.90;999.90;;;7.50;99.90;;;;;;4995040;28;20075;-76
2023/01/09 01:36:06;;;;;;;1999.90;999.90;;;7.50;99.90;;;;;;4993898;28;20052;-75
2023/01/09 01:38:32;;;;;;;1999.90;999.90;;;7.50;99.90;;;;;;5008911;28;20041;-75
2023/01/09 01:40:59;;;;;;;1999.90;999.90;;;7.50;99.90;;;;;;4995322;28;20520;-75
2023/01/09 01:43:24;;;;;;;1999.90;999.90;;;7.50;99.90;;;;;;4994938;28;20039;-75
2023/01/09 01:45:50;;;;;;;1999.90;999.90;;;7.50;99.90;;;;;;4994827;28;20031;-75
2023/01/09 01:48:24;;;;;;;1999.90;999.90;;;7.50;99.90;;;;;;4993353;28;20042;-75
2023/01/09 01:50:52;;;;;;;1999.90;999.90;;;7.60;99.90;;;;;;4995149;28;20534;-75
2023/01/09 01:53:32;;;;;;;1999.90;999.90;;;7.60;99.90;;;;;;4994823;28;20034;-75
2023/01/09 01:56:23;;;;;;;1999.90;999.90;;;7.60;99.90;;;;;;4993566;28;20118;-75
2023/01/09 01:59:06;;;;;;;1999.90;999.90;;;7.60;99.90;;;;;;4993499;28;20102;-75
2023/01/09 02:01:33;;;;;;;1999.90;999.90;;;7.60;99.90;;;;;;4994714;28;20047;-75
2023/01/09 02:04:00;;;;;;;1999.90;999.90;;;7.60;99.90;;;;;;4995880;28;20038;-75
2023/01/09 02:06:27;;;;;;;1999.90;999.90;;;7.60;99.90;;;;;;4994532;28;20532;-75
2023/01/09 02:08:54;;;;;;;1999.90;999.90;;;7.60;99.90;;;;;;5001024;28;20556;-75
2023/01/09 02:11:20;;;;;;;1999.90;999.90;;;7.70;99.90;;;;;;5014503;28;20571;-75
2023/01/09 02:13:46;;;;;;;1999.90;999.90;;;7.60;99.90;;;;;;5012583;28;20053;-75
2023/01/09 02:16:41;;;;;;;1999.90;999.90;;;7.60;99.90;;;;;;5012644;28;20039;-75
2023/01/09 02:19:25;;;;;;;1999.90;999.90;;;7.60;99.90;;;;;;5014352;28;20049;-75
2023/01/09 02:22:28;;;;;;;1999.90;999.90;;;7.60;99.90;;;;;;5012780;28;20089;-75
2023/01/09 02:25:21;;;;;;;1999.90;999.90;;;7.60;99.90;;;;;;5012726;28;20038;-75
2023/01/09 02:28:32;;;;;;;1999.90;999.90;;;7.70;99.90;;;;;;5004193;28;20035;-75
2023/01/09 02:31:00;;;;;;;1999.90;999.90;;;7.70;99.90;;;;;;4993245;28;20038;-75
2023/01/09 02:33:48;;;;;;;1999.90;999.90;;;7.80;99.90;;;;;;4994389;28;20045;-75
2023/01/09 02:36:27;;;;;;;1999.90;999.90;;;7.70;99.90;;;;;;4994405;28;20114;-75
2023/01/09 02:39:26;;;;;;;1999.90;999.90;;;7.70;99.90;;;;;;4993027;28;20409;-75
2023/01/09 02:41:58;;;;;;;1999.90;999.90;;;7.70;99.90;;;;;;5008875;28;20046;-75
2023/01/09 02:44:26;;;;;;;1999.90;999.90;;;7.70;99.90;;;;;;5013450;28;20031;-75
2023/01/09 02:47:01;;;;;;;1999.90;999.90;;;7.70;99.90;;;;;;5014566;28;20039;-75
2023/01/09 02:49:27;;;;;;;1999.90;999.90;;;7.70;99.90;;;;;;5008339;28;20035;-75
2023/01/09 02:52:12;;;;;;;1999.90;999.90;;;7.60;99.90;;;;;;4997819;28;20034;-75
2023/01/09 02:55:04;;;;;;;1999.90;999.90;;;7.60;99.90;;;;;;4997814;28;20572;-75
2023/01/09 02:58:07;;;;;;;1999.90;999.90;;;7.60;99.90;;;;;;4997442;28;20027;-75
2023/01/09 03:00:45;;;;;;;1999.90;999.90;;;7.50;99.90;;;;;;4995867;28;20077;-75
2023/01/09 03:03:29;;;;;;;1999.90;999.90;;;7.50;99.90;;;;;;4997518;28;20047;-75
2023/01/09 03:06:17;;;;;;;1999.90;999.90;;;7.50;99.90;;;;;;4997234;28;20484;-75
2023/01/09 03:08:47;;;;;;;1999.90;999.90;;;7.50;99.90;;;;;;4997979;28;20118;-75
2023/01/09 03:11:12;;;;;;;1999.90;999.90;;;7.40;99.90;;;;;;4998663;28;20038;-75
2023/01/09 03:14:03;;;;;;;1999.90;999.90;;;7.40;99.90;;;;;;4997640;28;20034;-75
2023/01/09 03:16:34;;;;;;;1999.90;999.90;;;7.40;99.90;;;;;;4995775;28;20560;-75
2023/01/09 03:19:01;;;;;;;1999.90;999.90;;;7.40;99.90;;;;;;4997521;28;20103;-75
2023/01/09 03:21:27;;;;;;;1999.90;999.90;;;7.40;99.90;;;;;;4997132;28;20501;-75
2023/01/09 03:24:01;;;;;;;1999.90;999.90;;;7.30;99.90;;;;;;4996859;28;20441;-75
2023/01/09 03:26:30;;;;;;;1999.90;999.90;;;7.30;99.90;;;;;;4996423;28;20138;-75
2023/01/09 03:28:57;;;;;;;1999.90;999.90;;;7.30;99.90;;;;;;5051458;22;20069;-72
2023/01/09 03:31:22;;;;;;;1999.90;999.90;;;7.40;99.90;;;;;;5052648;28;20589;-72
2023/01/09 03:33:48;;;;;;;1999.90;999.90;;;7.40;99.90;;;;;;5036785;28;20030;-72
2023/01/09 03:36:16;;;;;;;1999.90;999.90;;;7.50;99.90;;;;;;5036615;28;20038;-72
2023/01/09 03:38:41;;;;;;;1999.90;999.90;;;7.50;99.90;;;;;;5036527;28;20033;-72
2023/01/09 03:41:07;;;;;;;1999.90;999.90;;;7.60;99.90;;;;;;5036750;28;20041;-72
2023/01/09 03:43:32;;;;;;;1999.90;999.90;;;7.60;99.90;;;;;;5036631;28;20026;-72
2023/01/09 03:45:58;;;;;;;1999.90;999.90;;;7.70;99.90;;;;;;5036679;28;20080;-72
2023/01/09 03:48:24;;;;;;;1999.90;999.90;;;7.70;99.90;;;;;;5036312;28;20096;-72
2023/01/09 03:50:51;;;;;;;1999.90;999.90;;;7.70;99.90;;;;;;5035387;28;20060;-72
2023/01/09 03:53:17;;;;;;;1999.90;999.90;;;7.80;99.90;;;;;;5036882;28;20076;-72
2023/01/09 03:55:45;;;;;;;1999.90;999.90;;;7.70;99.90;;;;;;5036697;28;20061;-72
2023/01/09 03:58:11;;;;;;;1999.90;999.90;;;7.70;99.90;;;;;;5033502;28;20038;-72
2023/01/09 04:00:39;;;;;;;1999.90;999.90;;;7.70;99.90;;;;;;5035157;28;20034;-72
2023/01/09 04:03:05;;;;;;;1999.90;999.90;;;7.60;99.90;;;;;;5035099;28;20507;-73
2023/01/09 04:05:30;;;;;;;1999.90;999.90;;;7.50;99.90;;;;;;5036380;28;20949;-72
2023/01/09 04:07:56;;;;;;;1999.90;999.90;;;7.40;99.90;;;;;;5035751;28;20050;-72
2023/01/09 04:10:21;;;;;;;1999.90;999.90;;;7.40;99.90;;;;;;5033661;28;20044;-72
2023/01/09 04:12:47;;;;;;;1999.90;999.90;;;7.30;99.90;;;;;;5035823;28;20038;-72
2023/01/09 04:15:12;;;;;;;1999.90;999.90;;;7.20;99.90;;;;;;5034435;28;20460;-72
2023/01/09 04:17:38;;;;;;;1999.90;999.90;;;7.10;99.90;;;;;;5036047;28;20048;-72
2023/01/09 04:20:04;;;;;;;1999.90;999.90;;;7.00;99.90;;;;;;5035309;28;20522;-73
2023/01/09 04:22:30;;;;;;;1999.90;999.90;;;6.90;99.90;;;;;;5050053;28;20514;-73
2023/01/09 04:24:55;;;;;;;1999.90;999.90;;;6.90;99.90;;;;;;5055860;28;20064;-73
2023/01/09 04:27:21;;;;;;;1999.90;999.90;;;6.80;99.90;;;;;;5055116;28;20041;-73
2023/01/09 04:29:46;;;;;;;1999.90;999.90;;;6.80;99.90;;;;;;5051466;28;20120;-73
2023/01/09 04:32:12;;;;;;;1999.90;999.90;;;6.70;99.90;;;;;;5048645;28;20061;-73
2023/01/09 04:34:37;;;;;;;1999.90;999.90;;;6.70;99.90;;;;;;5039830;28;20088;-73
2023/01/09 04:37:03;;;;;;;1999.90;999.90;;;6.70;99.90;;;;;;5035584;28;20061;-73
2023/01/09 04:39:28;;;;;;;1999.90;999.90;;;6.70;99.90;;;;;;5035453;28;20037;-73
2023/01/09 04:41:54;;;;;;;1999.90;999.90;;;6.60;99.90;;;;;;5035005;28;20050;-73
2023/01/09 04:44:22;;;;;;;1999.90;999.90;;;6.60;99.90;;;;;;5035746;28;20038;-73
2023/01/09 04:46:48;;;;;;;1999.90;999.90;;;6.60;99.90;;;;;;5055011;28;20034;-73
2023/01/09 04:49:14;;;;;;;1999.90;999.90;;;6.50;99.90;;;;;;5055557;28;20030;-73
2023/01/09 04:51:39;;;;;;;1999.90;999.90;;;6.50;99.90;;;;;;5055267;28;20045;-73
2023/01/09 04:54:05;;;;;;;1999.90;999.90;;;6.50;99.90;;;;;;5055371;28;20025;-73
2023/01/09 04:56:31;;;;;;;1999.90;999.90;;;6.50;99.90;;;;;;5071736;28;20043;-72
2023/01/09 04:58:56;;;;;;;1999.90;999.90;;;6.50;99.90;;;;;;5054883;28;20040;-72
2023/01/09 05:01:23;;;;;;;1999.90;999.90;;;6.40;99.90;;;;;;5036096;28;20041;-72
2023/01/09 05:03:48;;;;;;;1999.90;999.90;;;6.40;99.90;;;;;;5036997;28;20025;-72
2023/01/09 05:06:14;;;;;;;1999.90;999.90;;;6.40;99.90;;;;;;5035123;28;20416;-72
2023/01/09 05:08:39;;;;;;;1999.90;999.90;;;6.50;99.90;;;;;;5034634;28;20038;-72
2023/01/09 05:11:05;;;;;;;1999.90;999.90;;;6.50;99.90;;;;;;5034672;28;20034;-72
2023/01/09 05:13:30;;;;;;;1999.90;999.90;;;6.50;99.90;;;;;;5035241;28;20037;-72
2023/01/09 05:15:56;;;;;;;1999.90;999.90;;;6.50;99.90;;;;;;5035202;28;20041;-72
2023/01/09 05:18:22;;;;;;;1999.90;999.90;;;6.50;99.90;;;;;;5036589;28;20034;-73
2023/01/09 05:20:47;;;;;;;1999.90;999.90;;;6.50;99.90;;;;;;5036986;28;20030;-73
2023/01/09 05:23:13;;;;;;;1999.90;999.90;;;6.40;99.90;;;;;;5035589;28;20041;-72
2023/01/09 05:25:38;;;;;;;1999.90;999.90;;;6.40;99.90;;;;;;5033168;28;20092;-73
2023/01/09 05:28:10;;;;;;;1999.90;999.90;;;6.50;99.90;;;;;;5034885;28;20041;-72
2023/01/09 05:30:35;;;;;;;1999.90;999.90;;;6.50;99.90;;;;;;5034975;28;20041;-72
2023/01/09 05:33:01;;;;;;;1999.90;999.90;;;6.50;99.90;;;;;;5035482;28;20038;-72
2023/01/09 05:35:26;;;;;;;1999.90;999.90;;;6.50;99.90;;;;;;5035099;28;20069;-72
2023/01/09 05:37:52;;;;;;;1999.90;999.90;;;6.50;99.90;;;;;;5034830;28;20030;-73
2023/01/09 05:40:18;;;;;;;1999.90;999.90;;;6.50;99.90;;;;;;5052619;28;20086;-73
2023/01/09 05:42:43;;;;;;;1999.90;999.90;;;6.50;99.90;;;;;;5054346;28;20038;-73
2023/01/09 05:45:09;;;;;;;1999.90;999.90;;;6.40;99.90;;;;;;5053035;28;20038;-73
2023/01/09 05:47:35;;;;;;;1999.90;999.90;;;6.40;99.90;;;;;;5054248;28;20422;-73
2023/01/09 05:50:01;;;;;;;1999.90;999.90;;;6.40;99.90;;;;;;5053679;28;20033;-73
2023/01/09 05:52:26;;;;;;;1999.90;999.90;;;6.40;99.90;;;;;;5039726;28;20037;-73
2023/01/09 05:54:52;;;;;;;1999.90;999.90;;;6.40;99.90;;;;;;5034022;28;20037;-73
2023/01/09 05:57:18;;;;;;;1999.90;999.90;;;6.40;99.90;;;;;;5034261;28;20052;-73
2023/01/09 05:59:43;;;;;;;1999.90;999.90;;;6.30;99.90;;;;;;5034081;28;20121;-73
2023/01/09 06:02:09;;;;;;;1999.90;999.90;;;6.30;99.90;;;;;;5035123;28;20045;-73
2023/01/09 06:04:34;;;;;;;1999.90;999.90;;;6.40;99.90;;;;;;5034587;28;20120;-73
2023/01/09 06:07:00;;;;;;;1999.90;999.90;;;6.30;99.90;;;;;;5034658;28;20053;-73
2023/01/09 06:09:25;;;;;;;1999.90;999.90;;;6.30;99.90;;;;;;5033859;28;20046;-73
2023/01/09 06:11:53;;;;;;;1999.90;999.90;;;6.30;99.90;;;;;;5045648;28;20553;-73
2023/01/09 06:14:19;;;;;;;1999.90;999.90;;;6.10;99.90;;;;;;5054188;28;20084;-73
2023/01/09 06:16:44;;;;;;;1999.90;999.90;;;6.10;99.90;;;;;;5053815;28;20037;-73
2023/01/09 06:19:10;;;;;;;1999.90;999.90;;;6.00;99.90;;;;;;5053469;28;20033;-73
2023/01/09 06:21:36;;;;;;;1999.90;999.90;;;6.00;99.90;;;;;;5054398;28;20049;-73
2023/01/09 06:24:01;;;;;;;1999.90;999.90;;;6.00;99.90;;;;;;5057064;28;20095;-73
2023/01/09 06:26:27;;;;;;;1999.90;999.90;;;6.00;99.90;;;;;;5057684;28;20479;-73
2023/01/09 06:28:55;;;;;;;1999.90;999.90;;;6.00;99.90;;;;;;5057013;28;20037;-73
2023/01/09 06:31:22;;;;;;;1999.90;999.90;;;5.90;99.90;;;;;;5050485;28;20140;-73
2023/01/09 06:33:48;;;;;;;1999.90;999.90;;;5.80;99.90;;;;;;5037534;28;20049;-73
2023/01/09 06:36:13;;;;;;;1999.90;999.90;;;5.70;99.90;;;;;;5038795;28;20037;-73
2023/01/09 06:38:39;;;;;;;1999.90;999.90;;;5.70;99.90;;;;;;5054750;28;20073;-73
2023/01/09 06:41:05;;;;;;;1999.90;999.90;;;5.70;99.90;;;;;;5057277;28;20041;-73
2023/01/09 06:43:37;;;;;;;1999.90;999.90;;;5.70;99.90;;;;;;5056801;28;20079;-73
2023/01/09 06:46:04;;;;;;;1999.90;999.90;;;5.70;99.90;;;;;;5052581;28;20034;-73
2023/01/09 06:48:31;;;;;;;1999.90;999.90;;;5.70;99.90;;;;;;5037011;28;20069;-73
2023/01/09 06:50:56;;;;;;;1999.90;999.90;;;5.90;99.90;;;;;;5040354;28;20041;-72
2023/01/09 06:53:22;;;;;;;1999.90;999.90;;;6.00;99.90;;;;;;5057134;28;20044;-72
2023/01/09 06:55:48;;;;;;;1999.90;999.90;;;6.10;99.90;;;;;;5042960;28;20399;-72
2023/01/09 06:58:14;;;;;;;1999.90;999.90;;;6.00;99.90;;;;;;5056563;28;20133;-72
2023/01/09 07:00:39;;;;;;;1999.90;999.90;;;6.20;99.90;;;;;;5051752;28;20105;-73
2023/01/09 07:03:05;;;;;;;1999.90;999.90;;;6.10;99.90;;;;;;5045437;28;20495;-73
2023/01/09 07:05:36;;;;;;;1999.90;999.90;;;6.10;99.90;;;;;;5057335;28;20026;-72
2023/01/09 07:08:02;;;;;;;1999.90;999.90;;;6.20;99.90;;;;;;5045259;28;20494;-72
2023/01/09 07:10:27;;;;;;;1999.90;999.90;;;6.20;99.90;;;;;;5036563;28;20044;-72
2023/01/09 07:12:55;;;;;;;1999.90;999.90;;;6.30;99.90;;;;;;5037416;28;20474;-72
2023/01/09 07:15:22;;;;;;;1999.90;999.90;;;6.20;99.90;;;;;;5054824;28;20041;-73
2023/01/09 07:17:51;;;;;;;1999.90;999.90;;;6.30;99.90;;;;;;5056667;28;20033;-74
2023/01/09 07:20:17;;;;;;;1999.90;999.90;;;6.30;99.90;;;;;;5055866;28;20029;-73
2023/01/09 07:22:43;;;;;;;1999.90;999.90;;;6.30;99.90;;;;;;5045348;28;20384;-73
2023/01/09 07:25:09;;;;;;;1999.90;999.90;;;6.30;99.90;;;;;;5036618;28;20040;-73
2023/01/09 07:27:34;;;;;;;1999.90;999.90;;;6.20;99.90;;;;;;5055055;28;20426;-73
2023/01/09 07:30:00;;;;;;;1999.90;999.90;;;6.20;99.90;;;;;;5056123;28;20108;-73
2023/01/09 07:32:25;;;;;;;1999.90;999.90;;;6.20;99.90;;;;;;5046471;28;20049;-73
2023/01/09 07:34:51;;;;;;;1999.90;999.90;;;6.20;99.90;;;;;;5033833;28;20435;-73
2023/01/09 07:37:17;;;;;;;1999.90;999.90;;;6.30;99.90;;;;;;5036400;28;20044;-73
2023/01/09 07:39:43;;;;;;;1999.90;999.90;;;6.30;99.90;;;;;;5037910;28;20137;-73
2023/01/09 07:42:08;;;;;;;1999.90;999.90;;;6.30;99.90;;;;;;5052096;28;20129;-74
2023/01/09 07:44:34;;;;;;;1999.90;999.90;;;6.40;99.90;;;;;;5052378;28;20088;-73
2023/01/09 07:46:59;;;;;;;1999.90;999.90;;;6.40;99.90;;;;;;5039885;28;20042;-73
2023/01/09 07:49:25;;;;;;;1999.90;999.90;;;6.50;99.90;;;;;;5035681;28;20444;-73
2023/01/09 07:51:50;;;;;;;1999.90;999.90;;;6.50;99.90;;;;;;5049285;28;20542;-73
2023/01/09 07:54:16;;;;;;;1999.90;999.90;;;6.50;99.90;;;;;;5036210;28;20105;-73
2023/01/09 07:56:41;;;;;;;1999.90;999.90;;;6.50;99.90;;;;;;5033899;28;20037;-73
2023/01/09 07:59:07;;;;;;;1999.90;999.90;;;6.50;99.90;;;;;;5036215;28;20084;-73
2023/01/09 08:01:33;;;;;;;1999.90;999.90;;;6.50;99.90;;;;;;5046756;28;20084;-73
2023/01/09 08:03:58;;;;;;;1999.90;999.90;;;6.50;99.90;;;;;;5055610;28;20088;-73
2023/01/09 08:06:24;;;;;;;1999.90;999.90;;;6.50;99.90;;;;;;5045621;28;20373;-73
2023/01/09 08:08:50;;;;;;;1999.90;999.90;;;6.50;99.90;;;;;;5035374;28;20514;-73
2023/01/09 08:11:16;;;;;;;1999.90;999.90;;;6.50;99.90;;;;;;5040263;28;20492;-73
2023/01/09 08:13:41;;;;;;;1999.90;999.90;;;6.60;99.90;;;;;;5034583;28;20037;-74
2023/01/09 08:16:07;;;;;;;1999.90;999.90;;;6.60;99.90;;;;;;5035465;28;20081;-76
2023/01/09 08:18:33;;;;;;;1999.90;999.90;;;6.60;99.90;;;;;;5034772;28;20117;-73
2023/01/09 08:20:58;;;;;;;1999.90;999.90;;;6.60;99.90;;;;;;5035375;28;20054;-74
2023/01/09 08:23:24;;;;;;;1999.90;999.90;;;6.60;99.90;;;;;;5036044;28;20531;-74
2023/01/09 08:25:49;;;;;;;1999.90;999.90;;;6.60;99.90;;;;;;5035848;28;20038;-73
2023/01/09 08:28:16;;;;;;;1999.90;999.90;;;6.60;99.90;;;;;;5035167;28;20112;-74
2023/01/09 08:30:41;;;;;;;1999.90;999.90;;;6.60;99.90;;;;;;5035812;28;20036;-73
2023/01/09 08:33:07;;;;;;;1999.90;999.90;;;6.60;99.90;;;;;;5035690;28;20455;-73
2023/01/09 08:35:32;;;;;;;1999.90;999.90;;;6.70;99.90;;;;;;5035877;28;20057;-73
2023/01/09 08:37:58;;;;;;;1999.90;999.90;;;6.70;99.90;;;;;;5034061;28;20076;-73
2023/01/09 08:40:23;;;;;;;1999.90;999.90;;;6.70;99.90;;;;;;5035516;28;20034;-73
2023/01/09 08:48:17;;;;;;;1999.90;999.90;;;6.80;99.90;;;;;;5033024;28;20503;-73
2023/01/09 08:50:43;;;;;;;1999.90;999.90;;;6.80;99.90;;;;;;5033838;28;20038;-73
2023/01/09 08:53:09;;;;;;;1999.90;999.90;;;6.90;99.90;;;;;;5035446;28;20034;-73
2023/01/09 08:55:35;;;;;;;1999.90;999.90;;;6.90;99.90;;;;;;5035414;28;20026;-73
2023/01/09 08:58:01;;;;;;;1999.90;999.90;;;7.00;99.90;;;;;;5034903;28;20038;-73
2023/01/09 09:00:26;;;;;;;1999.90;999.90;;;7.00;99.90;;;;;;5033359;28;20129;-73
2023/01/09 09:02:57;;;;;;;1999.90;999.90;;;7.10;99.90;;;;;;5035097;28;20042;-73
2023/01/09 09:05:25;;;;;;;1999.90;999.90;;;7.20;99.90;;;;;;5035229;28;20088;-73
2023/01/09 09:07:53;;;;;;;1999.90;999.90;;;7.30;99.90;;;;;;5035015;28;20052;-73
2023/01/09 09:10:19;;;;;;;1999.90;999.90;;;7.40;99.90;;;;;;5034992;28;20030;-73
2023/01/09 09:12:51;;;;;;;1999.90;999.90;;;7.40;99.90;;;;;;5034773;28;20034;-73
2023/01/09 09:15:22;;;;;;;1999.90;999.90;;;7.30;99.90;;;;;;5034893;28;20068;-73
2023/01/09 09:17:56;;;;;;;1999.90;999.90;;;7.20;99.90;;;;;;5033466;28;20137;-73
2023/01/09 09:20:24;;;;;;;1999.90;999.90;;;7.20;99.90;;;;;;5034945;28;20088;-73
2023/01/09 09:22:49;;;;;;;1999.90;999.90;;;7.30;99.90;;;;;;5051319;28;20045;-73
2023/01/09 09:25:16;;;;;;;1999.90;999.90;;;7.40;99.90;;;;;;5046644;28;20484;-73
2023/01/09 09:27:43;;;;;;;1999.90;999.90;;;7.50;99.90;;;;;;5034706;28;20084;-73
2023/01/09 09:30:10;;;;;;;1999.90;999.90;;;7.60;99.90;;;;;;5035077;28;20129;-74
2023/01/09 09:32:37;;;;;;;1999.90;999.90;;;7.60;99.90;;;;;;5033150;28;20034;-74
2023/01/09 09:35:03;;;;;;;1999.90;999.90;;;7.80;99.90;;;;;;5034504;28;20088;-74
2023/01/09 09:37:28;;;;;;;1999.90;999.90;;;7.80;99.90;;;;;;5034644;28;20077;-74
2023/01/09 09:39:54;;;;;;;1999.90;999.90;;;7.90;99.90;;;;;;5034220;28;20051;-74
2023/01/09 09:46:00;;;;;;;1999.90;999.90;;;7.70;99.90;;;;;;5034514;28;20030;-74
2023/01/09 09:48:38;;;;;;;1999.90;999.90;;;7.70;99.90;;;;;;5034157;28;20534;-74
2023/01/09 09:51:06;;;;;;;1999.90;999.90;;;7.80;99.90;;;;;;5034349;28;20512;-74
2023/01/09 09:53:46;;;;;;;1999.90;999.90;;;7.90;99.90;;;;;;5034232;28;20487;-74
2023/01/09 09:56:14;;;;;;;1999.90;999.90;;;8.00;99.90;;;;;;5033318;28;20488;-74
2023/01/09 09:58:44;;;;;;;1999.90;999.90;;;8.20;99.90;;;;;;5034125;28;20038;-74
2023/01/09 10:01:21;;;;;;;1999.90;999.90;;;8.40;99.90;;;;;;5034107;28;20471;-72
2023/01/09 10:03:58;;;;;;;1999.90;999.90;;;8.50;99.90;;;;;;5034155;28;20631;-72
2023/01/09 10:06:29;;;;;;;1999.90;999.90;;;8.50;99.90;;;;;;5034544;28;20112;-72
2023/01/09 10:09:01;;;;;;;1999.90;999.90;;;8.50;99.90;;;;;;5034184;28;20034;-72
2023/01/09 10:11:38;;;;;;;1999.90;999.90;;;8.50;99.90;;;;;;5034479;28;20108;-73
2023/01/09 10:14:04;;;;;;;1999.90;999.90;;;8.50;99.90;;;;;;5034365;28;20030;-72
2023/01/09 10:16:45;;;;;;;1999.90;999.90;;;8.60;99.90;;;;;;5032632;28;20038;-73
2023/01/09 10:19:19;;;;;;;1999.90;999.90;;;8.90;99.90;;;;;;5033976;28;20038;-72
2023/01/09 10:22:06;;;;;;;1999.90;999.90;;;9.00;99.90;;;;;;5034001;28;20069;-72
2023/01/09 10:24:36;;;;;;;1999.90;999.90;;;9.10;99.90;;;;;;5034167;28;20033;-72
2023/01/09 10:27:15;;;;;;;1999.90;999.90;;;9.10;99.90;;;;;;5033761;28;20117;-72
2023/01/09 10:29:52;;;;;;;1999.90;999.90;;;9.10;99.90;;;;;;5033579;28;20033;-72
2023/01/09 10:33:00;;;;;;;1999.90;999.90;;;9.00;99.90;;;;;;5032676;28;20519;-72
2023/01/09 10:35:43;;;;;;;1999.90;999.90;;;9.00;99.90;;;;;;5028172;28;20050;-72
2023/01/09 10:38:12;;;;;;;1999.90;999.90;;;8.90;99.90;;;;;;5034633;28;20052;-72
2023/01/09 10:41:24;;;;;;;1999.90;999.90;;;8.80;99.90;;;;;;5033706;28;20042;-71
2023/01/09 10:44:04;;;;;;;1999.90;999.90;;;8.80;99.90;;;;;;5029732;28;20065;-72
2023/01/09 10:46:37;;;;;;;1999.90;999.90;;;8.90;99.90;;;;;;5031868;28;20112;-71
2023/01/09 10:49:11;;;;;;;1999.90;999.90;;;8.90;99.90;;;;;;5033931;28;20165;-72
2023/01/09 10:51:47;;;;;;;1999.90;999.90;;;9.00;99.90;;;;;;5034275;28;20465;-72
2023/01/09 10:54:17;;;;;;;1999.90;999.90;;;8.90;99.90;;;;;;5044276;28;20045;-72
2023/01/09 10:57:08;;;;;;;1999.90;999.90;;;8.90;99.90;;;;;;5037498;28;20036;-72
2023/01/09 10:59:34;;;;;;;1999.90;999.90;;;8.90;99.90;;;;;;5050084;28;20077;-72
2023/01/09 11:02:00;;;;;;;1999.90;999.90;;;8.90;99.90;;;;;;5032078;28;20121;-72
2023/01/09 11:04:28;;;;;;;1999.90;999.90;;;8.90;99.90;;;;;;5040260;28;20495;-72
2023/01/09 11:07:19;;;;;;;1999.90;999.90;;;8.90;99.90;;;;;;5042719;28;20447;-72
2023/01/09 11:10:06;;;;;;;1999.90;999.90;;;9.00;99.90;;;;;;5036741;28;20111;-72
2023/01/09 11:12:33;;;;;;;1999.90;999.90;;;9.10;99.90;;;;;;5035464;28;20033;-72
2023/01/09 11:15:19;;;;;;;1999.90;999.90;;;9.00;99.90;;;;;;5036470;28;20033;-72
2023/01/09 11:17:46;;;;;;;1999.90;999.90;;;9.20;99.90;;;;;;5036620;28;20041;-72
2023/01/09 11:20:22;;;;;;;1999.90;999.90;;;9.30;99.90;;;;;;5036418;28;20089;-72
2023/01/09 11:22:50;;;;;;;1999.90;999.90;;;9.50;99.90;;;;;;5036973;28;20073;-72
2023/01/09 11:25:17;;;;;;;1999.90;999.90;;;9.60;99.90;;;;;;5034977;28;20045;-72
2023/01/09 11:28:02;;;;;;;1999.90;999.90;;;9.60;99.90;;;;;;5035141;28;20125;-72
2023/01/09 11:30:59;;;;;;;1999.90;999.90;;;9.40;99.90;;;;;;5036370;28;20486;-72
2023/01/09 11:33:33;;;;;;;1999.90;999.90;;;9.10;99.90;;;;;;5041109;28;20109;-71
2023/01/09 11:36:04;;;;;;;1999.90;999.90;;;9.00;99.90;;;;;;5046043;28;20042;-72
2023/01/09 11:38:32;;;;;;;1999.90;999.90;;;9.00;99.90;;;;;;5036783;28;20060;-74
2023/01/09 11:41:00;;;;;;;1999.90;999.90;;;8.90;99.90;;;;;;5037655;28;20034;-71
2023/01/09 11:43:31;;;;;;;1999.90;999.90;;;8.90;99.90;;;;;;5037156;28;20072;-71
2023/01/09 11:45:59;;;;;;;1999.90;999.90;;;8.90;99.90;;;;;;5048472;28;20053;-71
2023/01/09 11:48:33;;;;;;;1999.90;999.90;;;8.90;99.90;;;;;;5055176;28;20060;-73
2023/01/09 11:51:01;;;;;;;1999.90;999.90;;;9.00;99.90;;;;;;5055895;28;20025;-73
2023/01/09 11:53:27;;;;;;;1999.90;999.90;;;9.00;99.90;;;;;;5051798;28;20037;-71
2023/01/09 11:56:00;;;;;;;1999.90;999.90;;;9.00;99.90;;;;;;5038128;28;20042;-71
2023/01/09 11:58:32;;;;;;;1999.90;999.90;;;9.10;99.90;;;;;;5055177;28;20037;-74
2023/01/09 12:01:37;;;;;;;1999.90;999.90;;;9.10;99.90;;;;;;5048695;28;20030;-71
2023/01/09 12:04:27;;;;;;;1999.90;999.90;;;9.20;99.90;;;;;;5051079;28;20061;-72
2023/01/09 12:07:02;;;;;;;1999.90;999.90;;;9.40;99.90;;;;;;5021632;28;20381;-72
2023/01/09 12:09:42;;;;;;;1999.90;999.90;;;9.60;99.90;;;;;;5046312;28;20040;-72
2023/01/09 12:12:38;;;;;;;1999.90;999.90;;;9.70;99.90;;;;;;5036768;28;20122;-73
2023/01/09 12:15:33;;;;;;;1999.90;999.90;;;9.90;99.90;;;;;;5034266;28;20053;-73
2023/01/09 12:18:24;;;;;;;1999.90;999.90;;;9.90;99.90;;;;;;5035964;28;20048;-72
2023/01/09 12:21:18;;;;;;;1999.90;999.90;;;9.90;99.90;;;;;;5034814;28;20117;-73
2023/01/09 12:24:08;;;;;;;1999.90;999.90;;;9.80;99.90;;;;;;5035821;28;20034;-73
2023/01/09 12:27:08;;;;;;;1999.90;999.90;;;9.50;99.90;;;;;;5035643;28;20514;-73
2023/01/09 12:29:51;;;;;;;1999.90;999.90;;;9.20;99.90;;;;;;5023811;28;20116;-73
2023/01/09 12:32:57;;;;;;;1999.90;999.90;;;9.00;99.90;;;;;;5035788;28;20075;-73
2023/01/09 12:35:42;;;;;;;1999.90;999.90;;;8.40;99.90;;;;;;4973852;28;20039;-73